Time;durP1;ratioP1;P1;durP2;ratioP2;P2;SDS_P1;SDS_P2;PMS_P1;PMS_P2;Temp;Humidity;BMP_temperature;BMP_pressure;BME280_temperature;BME280_humidity;BME280_pressure;Samples;Min_cycle;Max_cycle;Signal;HPM_P1;HPM_P2
2022/05/28 00:00:42;;;;;;;8.03;6.83;;;;;;;30.07;nan;94324.44;4759534;30;20203;-74
2022/05/28 00:03:07;;;;;;;7.13;6.53;;;;;;;30.09;nan;94328.41;4761484;30;20257;-75
2022/05/28 00:05:33;;;;;;;7.23;6.10;;;;;;;29.41;nan;94325.66;4741535;30;20269;-74
2022/05/28 00:07:58;;;;;;;9.30;6.47;;;;;;;29.99;nan;94336.88;4763975;30;20263;-73
2022/05/28 00:10:24;;;;;;;7.17;6.47;;;;;;;29.93;nan;94327.38;4743753;30;20203;-74
2022/05/28 00:12:50;;;;;;;11.53;6.87;;;;;;;29.68;nan;94318.25;4764866;30;20764;-72
2022/05/28 00:15:17;;;;;;;8.10;7.30;;;;;;;29.54;nan;94315.78;4754050;30;20512;-74
2022/05/28 00:17:42;;;;;;;11.33;6.90;;;;;;;29.76;nan;94302.06;4767212;30;20202;-73
2022/05/28 00:20:09;;;;;;;10.00;7.40;;;;;;;29.54;nan;94305.78;4761229;30;20433;-74
2022/05/28 00:22:40;;;;;;;8.90;6.30;;;;;;;29.89;nan;94307.56;4762168;30;20241;-74
2022/05/28 00:25:06;;;;;;;13.13;7.30;;;;;;;30.29;nan;94309.88;4764135;30;20435;-74
2022/05/28 00:27:32;;;;;;;6.10;5.37;;;;;;;29.65;nan;94300.81;4760029;30;20481;-73
2022/05/28 00:29:57;;;;;;;9.27;5.87;;;;;;;29.57;nan;94304.34;4767262;30;20453;-74
2022/05/28 00:32:23;;;;;;;9.00;6.97;;;;;;;29.41;nan;94306.00;4757010;30;20242;-73
2022/05/28 00:34:49;;;;;;;8.37;6.73;;;;;;;29.23;nan;94294.44;4763406;30;20286;-73
2022/05/28 00:37:14;;;;;;;8.43;7.30;;;;;;;29.53;nan;94288.00;4766115;30;20461;-73
2022/05/28 00:39:40;;;;;;;14.00;7.33;;;;;;;29.84;nan;94278.06;4764376;30;20198;-75
2022/05/28 00:42:06;;;;;;;7.63;7.00;;;;;;;29.21;nan;94265.13;4765998;30;20187;-73
2022/05/28 00:44:31;;;;;;;7.10;6.17;;;;;;;29.51;nan;94267.88;4763612;30;20571;-74
2022/05/28 00:46:59;;;;;;;9.77;7.77;;;;;;;29.62;nan;94271.78;4754891;30;20218;-74
2022/05/28 00:49:28;;;;;;;10.13;7.80;;;;;;;29.37;nan;94266.19;4762762;30;20237;-74
2022/05/28 00:51:59;;;;;;;10.53;6.77;;;;;;;29.58;nan;94266.25;4769969;30;20487;-74
2022/05/28 00:54:26;;;;;;;7.73;6.43;;;;;;;29.42;nan;94264.41;4751568;30;20536;-73
2022/05/28 00:56:52;;;;;;;8.90;7.20;;;;;;;29.63;nan;94259.88;4755611;30;20460;-74
2022/05/28 00:59:17;;;;;;;7.90;6.33;;;;;;;29.56;nan;94251.53;4748646;30;20445;-74
2022/05/28 01:01:43;;;;;;;9.00;7.30;;;;;;;28.90;nan;94257.25;4761652;30;20191;-74
2022/05/28 01:04:31;;;;;;;7.27;6.60;;;;;;;29.35;nan;94260.31;4763691;30;20194;-73
2022/05/28 01:07:21;;;;;;;6.90;6.13;;;;;;;29.19;nan;94284.31;4767205;30;20598;-75
2022/05/28 01:10:28;;;;;;;8.10;7.40;;;;;;;29.01;nan;94298.91;4754319;30;20440;-74
2022/05/28 01:13:24;;;;;;;8.30;7.43;;;;;;;28.64;nan;94305.75;4767556;30;20546;-73
2022/05/28 01:15:57;;;;;;;10.43;6.10;;;;;;;27.85;nan;94298.31;4757926;30;20442;-72
2022/05/28 01:18:39;;;;;;;8.97;6.30;;;;;;;28.80;nan;94306.88;4759694;30;20507;-73
2022/05/28 01:21:18;;;;;;;7.30;5.87;;;;;;;28.39;nan;94327.72;4762493;30;20438;-74
2022/05/28 01:24:10;;;;;;;8.13;6.60;;;;;;;27.49;nan;94376.47;4763236;30;20449;-74
2022/05/28 01:26:46;;;;;;;7.37;6.50;;;;;;;28.04;nan;94381.47;4752490;30;20418;-74
2022/05/28 01:29:16;;;;;;;7.03;5.23;;;;;;;28.14;nan;94369.63;4751212;30;20511;-74
2022/05/28 01:31:44;;;;;;;8.87;6.20;;;;;;;28.43;nan;94366.34;4737068;30;20998;-73
2022/05/28 01:34:11;;;;;;;8.30;6.23;;;;;;;28.32;nan;94375.84;4761013;30;20468;-74
2022/05/28 01:36:37;;;;;;;8.03;6.40;;;;;;;28.38;nan;94373.78;4756210;30;20430;-74
2022/05/28 01:39:05;;;;;;;6.27;5.17;;;;;;;28.33;nan;94363.19;4758032;30;20540;-72
2022/05/28 01:41:31;;;;;;;6.80;5.47;;;;;;;28.56;nan;94356.59;4768961;30;20427;-74
2022/05/28 01:43:58;;;;;;;5.77;4.93;;;;;;;28.65;nan;94361.19;4766785;30;20479;-74
2022/05/28 01:46:27;;;;;;;12.60;6.53;;;;;;;28.27;nan;94359.84;4766518;30;20438;-73
2022/05/28 01:48:55;;;;;;;7.70;6.10;;;;;;;28.66;nan;94352.78;4766992;30;20449;-73
2022/05/28 01:51:24;;;;;;;6.10;5.47;;;;;;;28.58;nan;94348.22;4758028;30;20497;-74
2022/05/28 01:54:07;;;;;;;6.17;5.70;;;;;;;28.54;nan;94350.75;4754669;30;20538;-74
2022/05/28 01:56:34;;;;;;;5.93;5.33;;;;;;;29.12;nan;94345.97;4766423;30;20425;-74
2022/05/28 01:58:59;;;;;;;7.33;6.63;;;;;;;28.65;nan;94339.63;4772948;30;20450;-73
2022/05/28 02:01:25;;;;;;;7.43;6.80;;;;;;;27.72;nan;94342.25;4752174;30;21295;-73
2022/05/28 02:03:54;;;;;;;12.63;6.60;;;;;;;26.83;nan;94344.69;4756510;30;20212;-74
2022/05/28 02:06:20;;;;;;;8.40;6.80;;;;;;;27.87;nan;94354.50;4756234;30;20460;-73
2022/05/28 02:08:48;;;;;;;9.40;7.07;;;;;;;27.49;nan;94349.56;4766512;30;20515;-73
2022/05/28 02:11:17;;;;;;;6.40;5.80;;;;;;;27.82;nan;94344.66;4760559;30;20334;-73
2022/05/28 02:14:11;;;;;;;7.03;5.57;;;;;;;27.66;nan;94343.50;4765987;30;20456;-73
2022/05/28 02:16:49;;;;;;;8.03;7.23;;;;;;;27.65;nan;94339.19;4735551;30;20441;-74
2022/05/28 02:19:41;;;;;;;7.63;5.83;;;;;;;27.65;nan;94337.28;4762596;30;20444;-74
2022/05/28 02:22:14;;;;;;;5.83;5.20;;;;;;;27.65;nan;94334.59;4728520;30;20437;-74
2022/05/28 02:24:44;;;;;;;6.10;4.73;;;;;;;27.91;nan;94336.66;4765875;30;20437;-73
2022/05/28 02:27:16;;;;;;;8.20;4.77;;;;;;;28.32;nan;94343.53;4774415;30;20534;-73
2022/05/28 02:29:42;;;;;;;8.30;5.07;;;;;;;28.54;nan;94345.34;4761995;30;20446;-74
2022/05/28 02:32:19;;;;;;;5.83;4.63;;;;;;;28.28;nan;94349.88;4763909;30;20528;-73
2022/05/28 02:34:45;;;;;;;4.67;4.20;;;;;;;28.60;nan;94354.84;4765859;30;20440;-74
2022/05/28 02:37:21;;;;;;;7.93;4.27;;;;;;;28.19;nan;94341.78;4766546;30;20460;-73
2022/05/28 02:39:47;;;;;;;6.00;3.53;;;;;;;28.46;nan;94342.59;4758645;30;20535;-74
2022/05/28 02:42:12;;;;;;;5.40;4.10;;;;;;;28.10;nan;94332.91;4756959;30;20462;-73
2022/05/28 02:44:38;;;;;;;6.90;4.17;;;;;;;28.16;nan;94329.75;4765314;30;20441;-73
2022/05/28 02:47:04;;;;;;;7.03;3.60;;;;;;;28.67;nan;94322.06;4749490;30;20219;-73
2022/05/28 02:49:30;;;;;;;7.43;4.20;;;;;;;28.76;nan;94330.13;4767963;30;20196;-74
2022/05/28 02:51:55;;;;;;;4.80;3.43;;;;;;;29.15;nan;94314.94;4768559;30;20553;-74
2022/05/28 02:54:22;;;;;;;4.50;3.20;;;;;;;29.19;nan;94315.88;4765438;30;20445;-74
2022/05/28 02:56:48;;;;;;;5.37;3.90;;;;;;;29.08;nan;94328.06;4754658;30;20208;-74
2022/05/28 02:59:13;;;;;;;6.00;3.40;;;;;;;29.32;nan;94336.44;4752634;30;20446;-74
2022/05/28 03:01:39;;;;;;;5.60;4.10;;;;;;;29.05;nan;94326.03;4767792;30;20444;-73
2022/05/28 03:04:06;;;;;;;5.00;4.03;;;;;;;29.30;nan;94314.41;4752490;30;20230;-73
2022/05/28 03:06:32;;;;;;;5.40;3.30;;;;;;;29.88;nan;94314.06;4765226;30;20541;-74
2022/05/28 03:08:57;;;;;;;5.93;4.27;;;;;;;29.53;nan;94319.59;4760265;30;20494;-73
2022/05/28 03:11:22;;;;;;;5.63;3.90;;;;;;;29.61;nan;94310.66;4767462;30;20199;-73
2022/05/28 03:13:48;;;;;;;5.40;3.87;;;;;;;29.87;nan;94317.91;4751865;30;20213;-74
2022/05/28 03:16:14;;;;;;;6.67;4.70;;;;;;;29.92;nan;94325.81;4775048;30;20187;-74
2022/05/28 03:18:39;;;;;;;6.23;4.00;;;;;;;30.02;nan;94319.25;4763284;30;20211;-74
2022/05/28 03:21:05;;;;;;;5.73;4.30;;;;;;;29.83;nan;94330.47;4751953;30;20493;-74
2022/05/28 03:23:31;;;;;;;4.77;4.00;;;;;;;30.06;nan;94329.06;4752908;30;20196;-74
2022/05/28 03:25:57;;;;;;;6.83;4.30;;;;;;;30.31;nan;94323.84;4760978;30;21076;-74
2022/05/28 03:28:22;;;;;;;5.03;4.30;;;;;;;29.91;nan;94319.59;4756069;30;20554;-74
2022/05/28 03:30:48;;;;;;;6.40;4.20;;;;;;;29.86;nan;94325.22;4764339;30;20262;-73
2022/05/28 03:33:14;;;;;;;7.80;4.20;;;;;;;29.92;nan;94320.41;4756374;30;20261;-73
2022/05/28 03:35:40;;;;;;;6.53;4.03;;;;;;;30.21;nan;94316.13;4761161;30;20195;-74
2022/05/28 03:38:06;;;;;;;5.80;4.03;;;;;;;29.15;nan;94320.31;4764742;30;20930;-74
2022/05/28 03:40:33;;;;;;;6.73;5.10;;;;;;;29.29;nan;94325.50;4768274;30;20196;-74
2022/05/28 03:42:58;;;;;;;6.77;3.97;;;;;;;29.37;nan;94319.31;4752391;30;20920;-74
2022/05/28 03:45:26;;;;;;;5.00;4.03;;;;;;;29.73;nan;94324.31;4776334;30;20452;-74
2022/05/28 03:47:51;;;;;;;4.13;3.83;;;;;;;30.06;nan;94306.69;4765612;30;20569;-74
2022/05/28 03:50:16;;;;;;;6.00;4.37;;;;;;;30.24;nan;94304.66;4744756;30;20445;-74
2022/05/28 03:52:42;;;;;;;6.43;4.40;;;;;;;29.86;nan;94305.50;4782362;30;20549;-74
2022/05/28 03:55:08;;;;;;;5.60;3.97;;;;;;;29.57;nan;94301.63;4781656;30;20206;-73
2022/05/28 03:57:33;;;;;;;7.30;4.73;;;;;;;29.67;nan;94295.09;4792913;30;20206;-73
2022/05/28 04:00:00;;;;;;;5.43;4.67;;;;;;;29.95;nan;94293.53;4774596;30;20201;-73
2022/05/28 04:02:26;;;;;;;6.33;4.57;;;;;;;30.08;nan;94280.94;4778735;30;20199;-73
2022/05/28 04:04:52;;;;;;;4.43;3.57;;;;;;;30.25;nan;94284.66;4776463;30;20428;-74
2022/05/28 04:07:18;;;;;;;12.13;5.20;;;;;;;30.32;nan;94293.06;4781969;30;20210;-73
2022/05/28 04:09:44;;;;;;;9.27;6.07;;;;;;;30.54;nan;94292.75;4778234;30;20186;-74
2022/05/28 04:12:10;;;;;;;7.87;5.10;;;;;;;30.80;nan;94291.72;4781928;30;20233;-72
2022/05/28 04:14:35;;;;;;;9.60;5.57;;;;;;;31.05;nan;94281.81;4781730;30;20761;-73
2022/05/28 04:17:01;;;;;;;5.57;4.70;;;;;;;30.98;nan;94278.06;4781807;30;20241;-74
2022/05/28 04:19:26;;;;;;;9.27;5.03;;;;;;;31.02;nan;94295.19;4777163;30;20198;-74
2022/05/28 04:21:52;;;;;;;7.27;4.40;;;;;;;29.34;nan;94312.66;4781941;30;20206;-73
2022/05/28 04:24:17;;;;;;;7.13;4.70;;;;;;;29.10;nan;94340.13;4770975;30;20708;-74
2022/05/28 04:26:43;;;;;;;12.23;4.40;;;;;;;27.05;nan;94362.72;4776777;30;20195;-74
2022/05/28 04:29:09;;;;;;;6.10;4.00;;;;;;;27.58;nan;94352.28;4785657;30;20201;-73
2022/05/28 04:31:35;;;;;;;5.60;4.07;;;;;;;27.67;nan;94301.25;4780274;30;20273;-74
2022/05/28 04:34:00;;;;;;;5.90;4.00;;;;;;;27.83;nan;94297.81;4781874;30;20195;-74
2022/05/28 04:36:26;;;;;;;5.23;3.37;;;;;;;27.44;nan;94294.03;4784047;30;20201;-74
2022/05/28 04:38:51;;;;;;;5.07;4.17;;;;;;;27.04;nan;94271.69;4782414;30;20232;-73
2022/05/28 04:41:17;;;;;;;7.07;3.90;;;;;;;26.89;nan;94272.84;4777533;30;20222;-73
2022/05/28 04:43:42;;;;;;;9.87;4.60;;;;;;;27.22;nan;94275.25;4781187;30;20228;-73
2022/05/28 04:46:08;;;;;;;12.63;4.80;;;;;;;28.39;nan;94284.66;4781244;30;20285;-73
2022/05/28 04:48:33;;;;;;;16.20;6.57;;;;;;;28.57;nan;94301.66;4765244;30;20210;-73
2022/05/28 04:50:59;;;;;;;6.70;3.93;;;;;;;28.73;nan;94311.94;4779873;30;20289;-74
2022/05/28 04:53:24;;;;;;;5.60;4.30;;;;;;;28.54;nan;94323.81;4782155;30;20226;-74
2022/05/28 04:55:50;;;;;;;5.37;4.00;;;;;;;28.20;nan;94322.63;4778667;30;20186;-74
2022/05/28 04:58:15;;;;;;;6.63;4.60;;;;;;;28.37;nan;94318.38;4781535;30;20270;-73
2022/05/28 05:00:43;;;;;;;6.27;4.00;;;;;;;28.26;nan;94322.47;4781322;30;20233;-74
2022/05/28 05:03:08;;;;;;;4.63;3.90;;;;;;;28.23;nan;94330.09;4780870;30;20229;-73
2022/05/28 05:05:34;;;;;;;6.63;4.10;;;;;;;28.08;nan;94346.66;4780857;30;20431;-74
2022/05/28 05:08:00;;;;;;;10.90;4.70;;;;;;;27.75;nan;94367.72;4780919;30;20195;-75
2022/05/28 05:10:25;;;;;;;5.67;3.80;;;;;;;28.23;nan;94354.31;4780949;30;20311;-74
2022/05/28 05:12:51;;;;;;;5.20;3.97;;;;;;;28.19;nan;94345.28;4780989;30;20250;-73
2022/05/28 05:15:16;;;;;;;6.97;4.97;;;;;;;28.11;nan;94343.34;4793136;30;20297;-74
2022/05/28 05:17:42;;;;;;;6.40;5.20;;;;;;;27.05;nan;94351.97;4787994;30;20196;-74
2022/05/28 05:20:09;;;;;;;8.60;4.30;;;;;;;26.40;nan;94346.97;4787076;30;20761;-75
2022/05/28 05:22:35;;;;;;;9.07;4.90;;;;;;;26.44;nan;94337.22;4764935;30;20195;-74
2022/05/28 05:25:00;;;;;;;8.23;5.20;;;;;;;27.19;nan;94345.75;4781096;30;20439;-74
2022/05/28 05:27:26;;;;;;;6.43;4.33;;;;;;;27.54;nan;94348.63;4793331;29;20286;-73
2022/05/28 05:29:56;;;;;;;9.23;4.90;;;;;;;27.81;nan;94356.53;4779523;30;20182;-75
2022/05/28 05:32:22;;;;;;;4.77;4.37;;;;;;;28.16;nan;94351.28;4780776;30;20230;-74
2022/05/28 05:34:47;;;;;;;5.23;4.57;;;;;;;28.38;nan;94346.88;4775826;30;20434;-75
2022/05/28 05:37:13;;;;;;;5.73;5.17;;;;;;;28.99;nan;94347.72;4775599;30;20282;-74
2022/05/28 05:39:39;;;;;;;8.70;5.40;;;;;;;29.59;nan;94353.34;4781132;30;20258;-73
2022/05/28 05:42:05;;;;;;;10.53;5.70;;;;;;;29.55;nan;94355.91;4781100;30;20193;-73
2022/05/28 05:44:30;;;;;;;7.00;4.83;;;;;;;28.62;nan;94362.63;4773372;30;20521;-74
2022/05/28 05:46:55;;;;;;;4.97;4.47;;;;;;;29.33;nan;94359.63;4767562;30;20181;-74
2022/05/28 05:49:21;;;;;;;7.83;5.43;;;;;;;29.11;nan;94351.69;4779323;30;20190;-74
2022/05/28 05:51:47;;;;;;;6.77;5.10;;;;;;;29.10;nan;94348.22;4769864;30;20248;-74
2022/05/28 05:54:14;;;;;;;6.13;5.40;;;;;;;29.05;nan;94355.66;4748315;30;20204;-74
2022/05/28 05:56:39;;;;;;;11.20;5.50;;;;;;;28.79;nan;94345.69;4760867;30;20429;-73
2022/05/28 05:59:04;;;;;;;8.67;5.87;;;;;;;29.03;nan;94345.19;4767243;30;20480;-74
2022/05/28 06:01:30;;;;;;;8.10;5.70;;;;;;;29.30;nan;94335.97;4760870;30;20195;-73
2022/05/28 06:03:56;;;;;;;8.53;5.50;;;;;;;29.46;nan;94340.84;4755496;30;20207;-74
2022/05/28 06:06:21;;;;;;;7.20;6.10;;;;;;;29.73;nan;94339.72;4757165;30;20434;-74
2022/05/28 06:08:47;;;;;;;9.23;5.77;;;;;;;30.39;nan;94328.41;4762572;30;20215;-74
2022/05/28 06:11:13;;;;;;;7.30;5.77;;;;;;;30.42;nan;94326.97;4762275;30;20255;-74
2022/05/28 06:13:39;;;;;;;5.53;5.03;;;;;;;31.09;nan;94327.88;4762049;30;20488;-74
2022/05/28 06:16:05;;;;;;;6.47;5.90;;;;;;;31.28;nan;94314.69;4764652;30;20447;-74
2022/05/28 06:18:31;;;;;;;12.33;5.60;;;;;;;31.01;nan;94315.25;4761601;30;20207;-74
2022/05/28 06:20:59;;;;;;;12.60;5.70;;;;;;;30.21;nan;94318.84;4754478;30;20454;-72
2022/05/28 06:23:25;;;;;;;7.87;5.73;;;;;;;28.95;nan;94319.03;4759781;30;20556;-73
2022/05/28 06:25:50;;;;;;;7.40;6.07;;;;;;;28.97;nan;94308.75;4764981;30;20441;-74
2022/05/28 06:28:16;;;;;;;14.80;6.97;;;;;;;29.36;nan;94310.44;4760621;30;20227;-74
2022/05/28 06:30:44;;;;;;;13.10;6.43;;;;;;;29.60;nan;94303.69;4761815;30;20284;-74
2022/05/28 06:33:11;;;;;;;12.27;6.77;;;;;;;28.42;nan;94304.78;4744820;30;20240;-74
2022/05/28 06:35:36;;;;;;;8.73;6.83;;;;;;;28.56;nan;94312.72;4760907;30;20429;-74
2022/05/28 06:38:02;;;;;;;9.20;5.90;;;;;;;29.37;nan;94301.25;4762474;30;20453;-74
2022/05/28 06:40:27;;;;;;;9.57;6.60;;;;;;;29.18;nan;94295.44;4768301;30;20203;-74
2022/05/28 06:42:55;;;;;;;8.13;6.40;;;;;;;28.16;nan;94291.28;4763945;30;20195;-74
2022/05/28 06:45:21;;;;;;;12.13;7.60;;;;;;;28.42;nan;94288.63;4762457;30;20187;-74
2022/05/28 06:47:47;;;;;;;12.40;7.60;;;;;;;29.12;nan;94277.78;4759652;30;20447;-73
2022/05/28 06:53:00;;;;;;;10.27;6.87;;;;;;;30.45;nan;94267.69;4763011;30;20492;-73
2022/05/28 06:55:26;;;;;;;8.80;6.83;;;;;;;30.07;nan;94268.56;4764976;30;20429;-74
2022/05/28 06:57:51;;;;;;;8.97;6.53;;;;;;;29.75;nan;94257.31;4750550;30;20526;-74
2022/05/28 07:00:17;;;;;;;9.00;6.13;;;;;;;29.85;nan;94248.06;4766765;30;20215;-74
2022/05/28 07:02:42;;;;;;;10.43;6.37;;;;;;;30.66;nan;94245.28;4768708;30;20199;-73
2022/05/28 07:05:13;;;;;;;8.67;6.33;;;;;;;30.14;nan;94244.53;4765411;30;20203;-74
2022/05/28 07:07:39;;;;;;;9.23;7.03;;;;;;;31.27;nan;94247.41;4760886;30;20211;-74
2022/05/28 07:10:05;;;;;;;9.13;7.40;;;;;;;31.91;nan;94240.56;4770299;30;20536;-74
2022/05/28 07:12:31;;;;;;;7.60;6.90;;;;;;;32.24;nan;94240.41;4756409;30;20216;-74
2022/05/28 07:14:58;;;;;;;9.70;6.90;;;;;;;32.78;nan;94231.13;4765154;30;20437;-75
2022/05/28 07:17:23;;;;;;;8.60;7.27;;;;;;;32.59;nan;94231.75;4768757;30;20461;-74
2022/05/28 07:19:49;;;;;;;13.17;7.70;;;;;;;32.66;nan;94220.34;4764580;30;20451;-73
2022/05/28 07:22:15;;;;;;;13.07;7.60;;;;;;;32.76;nan;94222.53;4762648;30;20288;-74
2022/05/28 07:24:40;;;;;;;6.60;5.93;;;;;;;32.70;nan;94223.91;4754692;30;20489;-74
2022/05/28 07:27:06;;;;;;;11.00;7.40;;;;;;;32.35;nan;94224.47;4765151;30;20210;-75
2022/05/28 07:29:31;;;;;;;9.70;5.47;;;;;;;32.85;nan;94219.69;4758451;30;20195;-74
2022/05/28 07:31:57;;;;;;;12.10;5.80;;;;;;;33.01;nan;94222.41;4751844;30;20243;-74
2022/05/28 07:34:22;;;;;;;6.80;5.03;;;;;;;32.86;nan;94221.28;4762320;30;20233;-74
2022/05/28 07:36:48;;;;;;;6.90;5.47;;;;;;;32.23;nan;94219.09;4761847;30;20278;-75
2022/05/28 07:39:14;;;;;;;7.00;5.60;;;;;;;33.45;nan;94225.88;4762660;30;20230;-74
2022/05/28 07:41:40;;;;;;;6.33;5.73;;;;;;;33.58;nan;94213.03;4747125;30;20199;-74
2022/05/28 07:44:05;;;;;;;10.20;5.13;;;;;;;34.02;nan;94218.31;4759168;30;20494;-74
2022/05/28 07:46:32;;;;;;;6.50;5.50;;;;;;;33.87;nan;94221.84;4747716;30;20210;-74
2022/05/28 07:49:00;;;;;;;12.97;5.27;;;;;;;33.97;nan;94226.72;4753954;30;20269;-74
2022/05/28 07:51:26;;;;;;;9.60;5.73;;;;;;;34.06;nan;94231.19;4765393;30;20524;-74
2022/05/28 07:53:51;;;;;;;6.50;5.37;;;;;;;33.95;nan;94226.28;4763985;30;20498;-74
2022/05/28 07:56:17;;;;;;;13.07;6.43;;;;;;;33.45;nan;94222.41;4738972;30;20208;-74
2022/05/28 07:58:43;;;;;;;8.27;5.27;;;;;;;33.91;nan;94225.44;4762224;30;20209;-74
2022/05/28 08:01:43;;;;;;;9.23;5.77;;;;;;;33.32;nan;94215.47;4760753;30;20215;-74
2022/05/28 08:04:09;;;;;;;8.83;6.27;;;;;;;33.79;nan;94215.47;4768277;30;20215;-73
2022/05/28 08:06:36;;;;;;;9.37;5.90;;;;;;;34.25;nan;94208.72;4764914;30;20492;-73
2022/05/28 08:09:03;;;;;;;6.40;5.17;;;;;;;34.58;nan;94208.22;4754681;30;20541;-74
2022/05/28 08:11:28;;;;;;;9.43;5.60;;;;;;;34.59;nan;94209.81;4761099;30;20503;-75
2022/05/28 08:13:54;;;;;;;6.63;6.03;;;;;;;35.95;nan;94200.47;4765841;30;20898;-74
2022/05/28 08:16:20;;;;;;;5.80;5.23;;;;;;;35.97;nan;94198.97;4763406;30;20242;-73
2022/05/28 08:18:46;;;;;;;8.33;5.80;;;;;;;35.68;nan;94203.22;4763172;30;20233;-74
2022/05/28 08:23:56;;;;;;;6.73;5.90;;;;;;;35.27;nan;94211.09;4760955;30;21001;-74
2022/05/28 08:26:22;;;;;;;10.37;6.77;;;;;;;35.55;nan;94201.81;4758506;30;20486;-74
2022/05/28 08:28:49;;;;;;;7.17;5.83;;;;;;;32.96;nan;94198.28;4745317;30;20491;-75
2022/05/28 08:31:16;;;;;;;7.27;5.97;;;;;;;34.10;nan;94196.72;4760179;30;20440;-74
2022/05/28 08:33:42;;;;;;;13.17;6.07;;;;;;;34.29;nan;94194.06;4753873;30;20509;-74
2022/05/28 08:36:09;;;;;;;11.97;5.97;;;;;;;35.19;nan;94199.31;4762280;30;21090;-74
2022/05/28 08:38:36;;;;;;;7.73;6.53;;;;;;;33.99;nan;94194.56;4760874;30;20453;-75
2022/05/28 08:41:43;;;;;;;7.87;5.60;;;;;;;35.92;nan;94202.00;4762004;30;20965;-75
2022/05/28 08:44:13;;;;;;;6.57;5.80;;;;;;;35.56;nan;94196.00;4743113;30;20465;-74
2022/05/28 08:46:40;;;;;;;9.53;5.40;;;;;;;36.40;nan;94192.53;4762507;30;20448;-74
2022/05/28 08:49:08;;;;;;;10.00;5.47;;;;;;;37.34;nan;94203.31;4760019;30;20457;-75
2022/05/28 08:51:54;;;;;;;8.73;6.00;;;;;;;36.84;nan;94200.06;4754589;30;20465;-74
2022/05/28 08:54:25;;;;;;;5.93;5.33;;;;;;;37.24;nan;94190.34;4737502;30;20482;-74
2022/05/28 08:56:55;;;;;;;6.80;5.30;;;;;;;36.39;nan;94185.50;4763545;30;20493;-75
2022/05/28 09:00:02;;;;;;;8.13;5.47;;;;;;;36.10;nan;94185.94;4759111;30;20461;-74
2022/05/28 09:02:49;;;;;;;13.33;5.60;;;;;;;36.57;nan;94186.50;4753917;30;20453;-74
2022/05/28 09:05:20;;;;;;;6.43;4.50;;;;;;;35.46;nan;94188.47;4763018;30;20444;-74
2022/05/28 09:07:46;;;;;;;6.73;5.00;;;;;;;35.15;nan;94190.25;4760938;30;20526;-75
2022/05/28 09:13:45;;;;;;;10.03;5.87;;;;;;;33.39;nan;94183.88;4759541;30;20288;-75
2022/05/28 09:16:24;;;;;;;10.40;6.20;;;;;;;33.84;nan;94179.09;4740845;30;20445;-74
2022/05/28 09:18:52;;;;;;;13.93;6.60;;;;;;;34.42;nan;94173.75;4746062;30;20479;-75
2022/05/28 09:21:18;;;;;;;12.23;5.73;;;;;;;34.96;nan;94168.53;4762053;30;20477;-74
2022/05/28 09:23:48;;;;;;;6.80;4.93;;;;;;;35.11;nan;94164.91;4762338;30;20481;-74
2022/05/28 09:26:16;;;;;;;8.20;5.97;;;;;;;35.42;nan;94159.59;4761039;30;20453;-74
2022/05/28 09:28:50;;;;;;;6.70;5.83;;;;;;;34.85;nan;94156.69;4744154;30;20417;-74
2022/05/28 09:31:58;;;;;;;10.70;6.97;;;;;;;35.53;nan;94152.38;4764590;30;20497;-73
2022/05/28 09:34:48;;;;;;;10.63;5.77;;;;;;;35.05;nan;94147.34;4758374;30;20464;-74
2022/05/28 09:37:40;;;;;;;10.20;6.00;;;;;;;35.38;nan;94146.75;4760696;30;20421;-74
2022/05/28 09:40:29;;;;;;;9.60;6.00;;;;;;;35.68;nan;94137.84;4762397;30;20508;-74
2022/05/28 09:43:04;;;;;;;10.40;6.13;;;;;;;35.90;nan;94135.44;4755301;30;20426;-74
2022/05/28 09:45:43;;;;;;;15.70;6.73;;;;;;;36.75;nan;94137.66;4762737;30;20469;-74
2022/05/28 09:48:27;;;;;;;7.00;5.37;;;;;;;35.82;nan;94125.59;4763700;30;20429;-74
2022/05/28 09:50:53;;;;;;;6.90;4.70;;;;;;;35.32;nan;94125.63;4765370;30;20580;-74
2022/05/28 09:56:23;;;;;;;9.90;5.60;;;;;;;34.50;nan;94119.53;4763342;30;20231;-73
2022/05/28 09:58:50;;;;;;;11.57;5.80;;;;;;;36.02;nan;94120.81;4765661;30;20988;-74
2022/05/28 10:01:24;;;;;;;7.70;5.80;;;;;;;35.10;nan;94114.38;4762257;30;20419;-74
2022/05/28 10:06:48;;;;;;;6.87;5.60;;;;;;;33.73;nan;94115.63;4761354;30;20504;-74
2022/05/28 10:09:23;;;;;;;11.80;6.40;;;;;;;33.50;nan;94115.50;4765218;30;20479;-74
2022/05/28 10:11:50;;;;;;;14.03;5.93;;;;;;;34.52;nan;94118.03;4764215;30;20476;-75
2022/05/28 10:14:16;;;;;;;9.50;6.40;;;;;;;34.94;nan;94117.22;4762350;30;20481;-74
2022/05/28 10:16:41;;;;;;;9.87;5.50;;;;;;;35.96;nan;94110.22;4761750;30;20441;-74
2022/05/28 10:19:17;;;;;;;13.03;6.90;;;;;;;36.29;nan;94106.00;4764337;30;20191;-74
2022/05/28 10:21:49;;;;;;;8.87;6.27;;;;;;;34.99;nan;94108.75;4757357;30;20668;-74
2022/05/28 10:24:18;;;;;;;7.27;5.87;;;;;;;35.69;nan;94095.88;4765736;30;20448;-74
2022/05/28 10:26:53;;;;;;;11.40;6.57;;;;;;;35.93;nan;94085.66;4765642;30;20527;-74
2022/05/28 10:29:40;;;;;;;12.73;6.20;;;;;;;36.08;nan;94084.66;4762694;30;20464;-74
2022/05/28 10:32:26;;;;;;;8.40;5.80;;;;;;;36.18;nan;94082.47;4743849;30;20523;-73
2022/05/28 10:35:12;;;;;;;6.63;6.03;;;;;;;35.47;nan;94080.34;4756814;30;20448;-74
2022/05/28 10:37:38;;;;;;;6.97;6.00;;;;;;;36.64;nan;94080.25;4746080;30;20520;-74
2022/05/28 10:40:09;;;;;;;11.57;6.50;;;;;;;36.14;nan;94077.75;4763640;30;20479;-75
2022/05/28 10:42:35;;;;;;;14.70;6.33;;;;;;;36.85;nan;94078.91;4766650;30;20219;-75
2022/05/28 10:45:00;;;;;;;11.57;6.77;;;;;;;36.42;nan;94067.56;4761867;30;20446;-75
2022/05/28 10:47:41;;;;;;;10.43;6.67;;;;;;;36.69;nan;94073.66;4760115;30;20543;-75
2022/05/28 10:50:22;;;;;;;7.50;6.87;;;;;;;37.02;nan;94070.06;4762461;30;20303;-75
2022/05/28 10:53:07;;;;;;;9.97;7.23;;;;;;;37.41;nan;94069.59;4750136;30;20476;-75
2022/05/28 10:55:41;;;;;;;8.67;5.70;;;;;;;35.64;nan;94071.66;4766186;30;20478;-75
2022/05/28 10:58:13;;;;;;;9.77;6.20;;;;;;;37.07;nan;94067.00;4764780;30;20507;-76
2022/05/28 11:00:53;;;;;;;11.37;6.93;;;;;;;37.20;nan;94069.44;4748152;30;20468;-75
2022/05/28 11:03:56;;;;;;;13.30;7.03;;;;;;;37.59;nan;94074.38;4764528;30;20445;-74
2022/05/28 11:07:01;;;;;;;10.77;7.17;;;;;;;38.51;nan;94067.72;4759228;30;20467;-76
2022/05/28 11:09:45;;;;;;;10.23;6.37;;;;;;;38.00;nan;94064.06;4741983;30;20449;-74
2022/05/28 11:12:28;;;;;;;5.90;5.30;;;;;;;37.64;nan;94049.44;4764626;30;20461;-75
2022/05/28 11:15:15;;;;;;;9.10;6.73;;;;;;;36.91;nan;94053.59;4757822;30;20473;-75
2022/05/28 11:18:17;;;;;;;12.17;7.13;;;;;;;36.44;nan;94057.06;4753581;30;20434;-75
2022/05/28 11:20:54;;;;;;;11.67;7.10;;;;;;;37.09;nan;94045.56;4762272;30;20490;-75
2022/05/28 11:23:46;;;;;;;10.60;5.50;;;;;;;36.81;nan;94040.66;4743817;30;21005;-75
2022/05/28 11:26:46;;;;;;;8.23;6.20;;;;;;;37.79;nan;94033.91;4746465;30;20970;-75
2022/05/28 11:29:17;;;;;;;9.83;6.07;;;;;;;36.79;nan;94028.59;4763084;30;20560;-75
2022/05/28 11:31:55;;;;;;;11.33;7.30;;;;;;;35.99;nan;94031.63;4763652;30;20418;-75
2022/05/28 11:34:27;;;;;;;10.33;6.83;;;;;;;36.25;nan;94028.81;4761972;30;20506;-74
2022/05/28 11:37:02;;;;;;;12.47;7.43;;;;;;;36.37;nan;94022.34;4763525;30;20502;-75
2022/05/28 11:40:01;;;;;;;11.23;6.90;;;;;;;35.53;nan;94024.44;4762862;30;20444;-74
2022/05/28 11:42:58;;;;;;;9.87;6.17;;;;;;;35.49;nan;94021.66;4759642;30;20499;-74
2022/05/28 11:45:49;;;;;;;11.03;6.30;;;;;;;35.58;nan;94022.16;4739935;30;20445;-74
2022/05/28 11:48:22;;;;;;;10.17;7.00;;;;;;;35.49;nan;94027.09;4757629;30;20481;-75
2022/05/28 11:54:03;;;;;;;8.50;6.97;;;;;;;35.92;nan;94005.88;4754782;30;20533;-74
2022/05/28 11:56:29;;;;;;;8.07;7.20;;;;;;;35.57;nan;94022.53;4744894;30;20492;-74
2022/05/28 11:59:09;;;;;;;10.57;6.30;;;;;;;35.32;nan;94014.06;4762845;30;20449;-75
2022/05/28 12:01:58;;;;;;;15.07;7.87;;;;;;;35.25;nan;94011.22;4751612;30;20198;-74
2022/05/28 12:04:23;;;;;;;8.33;6.40;;;;;;;35.16;nan;94004.09;4744748;30;20584;-74
2022/05/28 12:07:00;;;;;;;10.33;6.57;;;;;;;34.24;nan;94004.16;4743070;30;20508;-74
2022/05/28 12:09:32;;;;;;;18.70;7.47;;;;;;;33.81;nan;93997.91;4762420;30;20207;-74
2022/05/28 12:12:20;;;;;;;10.10;6.07;;;;;;;34.00;nan;93992.47;4758073;30;20463;-74
2022/05/28 12:15:00;;;;;;;8.27;5.90;;;;;;;33.91;nan;93994.63;4758660;30;20493;-74
2022/05/28 12:17:28;;;;;;;8.30;5.70;;;;;;;34.03;nan;93999.09;4756032;30;20439;-75
2022/05/28 12:19:59;;;;;;;8.03;5.97;;;;;;;33.81;nan;93997.91;4762263;30;20507;-75
2022/05/28 12:22:28;;;;;;;9.37;6.43;;;;;;;33.63;nan;93995.63;4763496;30;20433;-75